createdAt,value
2022-11-20T00:00:52.632Z,100616.41
2022-11-20T00:02:54.084Z,100613.03
2022-11-20T00:04:55.627Z,100613.78
2022-11-20T00:06:57.185Z,100611.91
2022-11-20T00:09:01.453Z,100589.53
2022-11-20T00:11:05.460Z,100600.63
2022-11-20T00:13:07.762Z,100603.31
2022-11-20T00:15:10.517Z,100602.53
2022-11-20T00:17:12.210Z,100611.28
2022-11-20T00:19:13.706Z,100603.25
2022-11-20T00:21:17.147Z,100593.81
2022-11-20T00:23:18.922Z,100605.06
2022-11-20T00:25:21.736Z,100600.84
2022-11-20T00:27:23.345Z,100611.34
2022-11-20T00:29:24.946Z,100609.25
2022-11-20T00:31:27.223Z,100604.13
2022-11-20T00:33:28.880Z,100604.84
2022-11-20T00:35:30.799Z,100605.03
2022-11-20T00:37:32.325Z,100604.97
2022-11-20T00:39:33.890Z,100602.47
2022-11-20T00:41:36.976Z,100611.72
2022-11-20T00:43:39.435Z,100610.03
2022-11-20T00:45:40.934Z,100616.91
2022-11-20T00:47:42.636Z,100614.41
2022-11-20T00:49:44.023Z,100610.91
2022-11-20T00:51:45.569Z,100616.88
2022-11-20T00:53:47.555Z,100614.41
2022-11-20T00:56:00.031Z,100608.31
2022-11-20T00:58:04.649Z,100599.78
2022-11-20T01:00:07.740Z,100607.50
2022-11-20T01:02:09.332Z,100614.31
2022-11-20T01:04:10.933Z,100610.75
2022-11-20T01:06:15.078Z,100615.19
2022-11-20T01:08:16.615Z,100615.38
2022-11-20T01:10:18.157Z,100613.63
2022-11-20T01:12:19.757Z,100613.81
2022-11-20T01:14:22.807Z,100609.25
2022-11-20T01:16:27.078Z,100602.94
2022-11-20T01:18:28.745Z,100609.94
2022-11-20T01:20:30.330Z,100610.03
2022-11-20T01:22:31.989Z,100603.75
2022-11-20T01:24:33.908Z,100606.16
2022-11-20T01:26:37.197Z,100603.69
2022-11-20T01:28:39.199Z,100598.53
2022-11-20T01:30:42.228Z,100601.94
2022-11-20T01:32:43.801Z,100599.28
2022-11-20T01:34:45.812Z,100590.72
2022-11-20T01:36:48.161Z,100604.56
2022-11-20T01:38:52.164Z,100601.03
2022-11-20T01:40:57.303Z,100600.16
2022-11-20T01:43:13.299Z,100599.69
2022-11-20T01:45:53.568Z,100603.06
2022-11-20T01:47:55.481Z,100599.66
2022-11-20T01:50:03.784Z,100594.22
2022-11-20T01:52:09.054Z,100601.38
2022-11-20T01:54:14.624Z,100596.03
2022-11-20T01:56:16.746Z,100594.16
2022-11-20T01:58:21.405Z,100594.28
2022-11-20T02:00:23.120Z,100592.50
2022-11-20T02:02:26.436Z,100604.56
2022-11-20T02:04:27.984Z,100600.16
2022-11-20T02:06:36.099Z,100595.59
2022-11-20T02:08:37.610Z,100594.94
2022-11-20T02:10:39.931Z,100584.16
2022-11-20T02:12:42.186Z,100573.50
2022-11-20T02:14:43.833Z,100586.66
2022-11-20T02:16:47.726Z,100575.91
2022-11-20T02:18:51.592Z,100569.09
2022-11-20T02:20:59.751Z,100569.41
2022-11-20T02:23:07.398Z,100573.06
2022-11-20T02:25:11.139Z,100569.75
2022-11-20T02:27:14.154Z,100578.38
2022-11-20T02:29:20.412Z,100570.81
2022-11-20T02:31:22.190Z,100570.78
2022-11-20T02:33:23.794Z,100573.44
2022-11-20T02:35:43.112Z,100569.31
2022-11-20T02:37:48.587Z,100576.00
2022-11-20T02:39:52.137Z,100566.63
2022-11-20T02:41:57.148Z,100564.84
2022-11-20T02:43:58.730Z,100537.91
2022-11-20T02:46:00.312Z,100554.22
2022-11-20T02:48:01.895Z,100569.00
2022-11-20T02:50:04.815Z,100562.88
2022-11-20T02:52:06.514Z,100557.91
2022-11-20T02:54:07.830Z,100557.91
2022-11-20T02:56:09.449Z,100553.50
2022-11-20T02:58:12.400Z,100554.38
2022-11-20T03:00:15.039Z,100551.69
2022-11-20T03:02:16.707Z,100548.88
2022-11-20T03:04:18.129Z,100556.72
2022-11-20T03:06:19.712Z,100553.31
2022-11-20T03:08:21.367Z,100547.97
2022-11-20T03:10:23.143Z,100549.03
2022-11-20T03:12:24.486Z,100549.91
2022-11-20T03:14:27.503Z,100547.97
2022-11-20T03:16:29.123Z,100549.94
2022-11-20T03:18:30.990Z,100550.41
2022-11-20T03:20:33.729Z,100531.31
2022-11-20T03:22:35.325Z,100543.25
2022-11-20T03:24:36.903Z,100539.69
2022-11-20T03:26:39.786Z,100532.50
2022-11-20T03:28:42.313Z,100537.03
2022-11-20T03:30:45.287Z,100537.91
2022-11-20T03:32:46.921Z,100538.13
2022-11-20T03:34:48.501Z,100528.06
2022-11-20T03:36:50.110Z,100537.22
2022-11-20T03:38:51.925Z,100535.31
2022-11-20T03:41:00.326Z,100531.72
2022-11-20T03:43:01.856Z,100531.97
2022-11-20T03:45:03.674Z,100544.22
2022-11-20T03:47:06.666Z,100529.19
2022-11-20T03:49:08.294Z,100540.41
2022-11-20T03:51:12.547Z,100538.19
2022-11-20T03:53:14.324Z,100538.28
2022-11-20T03:55:16.076Z,100531.22
2022-11-20T03:57:17.642Z,100542.66
2022-11-20T03:59:19.572Z,100537.56
2022-11-20T04:01:22.992Z,100530.59
2022-11-20T04:03:26.607Z,100534.84
2022-11-20T04:05:28.813Z,100533.41
2022-11-20T04:07:30.399Z,100533.22
2022-11-20T04:09:32.009Z,100539.47
2022-11-20T04:11:35.431Z,100532.94
2022-11-20T04:13:37.001Z,100529.25
2022-11-20T04:15:38.723Z,100525.16
2022-11-20T04:17:40.263Z,100532.94
2022-11-20T04:19:43.184Z,100531.44
2022-11-20T04:21:45.365Z,100514.19
2022-11-20T04:23:47.130Z,100535.78
2022-11-20T04:25:48.459Z,100532.94
2022-11-20T04:27:50.009Z,100531.00
2022-11-20T04:29:51.679Z,100534.38
2022-11-20T04:31:53.012Z,100536.28
2022-11-20T04:33:54.622Z,100533.53
2022-11-20T04:36:01.863Z,100527.53
2022-11-20T04:38:04.096Z,100526.69
2022-11-20T04:40:06.570Z,100526.34
2022-11-20T04:42:09.848Z,100523.34
2022-11-20T04:44:11.709Z,100531.97
2022-11-20T04:46:13.257Z,100528.75
2022-11-20T04:48:14.929Z,100526.78
2022-11-20T04:50:16.243Z,100525.94
2022-11-20T04:52:19.202Z,100520.56
2022-11-20T04:54:20.921Z,100517.41
2022-11-20T04:56:22.673Z,100514.53
2022-11-20T04:58:24.202Z,100515.56
2022-11-20T05:00:25.761Z,100512.13
2022-11-20T05:02:27.546Z,100516.69
2022-11-20T05:04:29.079Z,100512.00
2022-11-20T05:06:30.765Z,100510.56
2022-11-20T05:08:33.562Z,100498.13
2022-11-20T05:10:35.084Z,100495.56
2022-11-20T05:12:36.660Z,100498.13
2022-11-20T05:14:38.127Z,100493.94
2022-11-20T05:16:39.720Z,100494.59
2022-11-20T05:18:42.264Z,100491.66
2022-11-20T05:20:43.828Z,100478.28
2022-11-20T05:22:45.530Z,100485.41
2022-11-20T05:24:48.276Z,100490.81
2022-11-20T05:26:49.827Z,100484.69
2022-11-20T05:28:52.062Z,100492.25
2022-11-20T05:30:53.748Z,100489.09
2022-11-20T05:32:55.162Z,100492.59
2022-11-20T05:34:56.697Z,100496.22
2022-11-20T05:36:58.291Z,100501.56
2022-11-20T05:39:01.783Z,100494.53
2022-11-20T05:41:06.213Z,100493.78
2022-11-20T05:43:07.781Z,100496.22
2022-11-20T05:45:12.774Z,100476.88
2022-11-20T05:47:14.314Z,100488.94
2022-11-20T05:49:15.922Z,100487.31
2022-11-20T05:51:19.552Z,100485.78
2022-11-20T05:53:21.094Z,100472.28
2022-11-20T05:55:22.772Z,100479.63
2022-11-20T05:57:25.568Z,100481.19
2022-11-20T05:59:27.094Z,100474.88
2022-11-20T06:01:28.753Z,100483.75
2022-11-20T06:03:30.307Z,100481.53
2022-11-20T06:05:31.844Z,100480.78
2022-11-20T06:07:33.435Z,100475.63
2022-11-20T06:09:35.065Z,100478.63
2022-11-20T06:11:36.650Z,100479.31
2022-11-20T06:13:42.292Z,100477.78
2022-11-20T06:15:49.375Z,100478.41
2022-11-20T06:17:53.139Z,100465.78
2022-11-20T06:19:54.819Z,100479.94
2022-11-20T06:21:56.163Z,100482.28
2022-11-20T06:23:57.725Z,100477.78
2022-11-20T06:26:02.966Z,100474.72
2022-11-20T06:28:04.638Z,100479.06
2022-11-20T06:30:08.391Z,100480.53
2022-11-20T06:32:10.143Z,100481.50
2022-11-20T06:34:11.486Z,100482.34
2022-11-20T06:36:14.803Z,100483.16
2022-11-20T06:38:16.521Z,100481.19
2022-11-20T06:40:17.975Z,100485.25
2022-11-20T06:42:19.511Z,100472.72
2022-11-20T06:44:21.029Z,100489.09
2022-11-20T06:46:24.045Z,100481.09
2022-11-20T06:48:27.452Z,100479.19
2022-11-20T06:50:28.988Z,100474.13
2022-11-20T06:52:30.503Z,100481.28
2022-11-20T06:54:32.025Z,100478.22
2022-11-20T06:56:36.530Z,100474.34
2022-11-20T06:58:38.381Z,100475.72
2022-11-20T07:00:40.049Z,100475.44
2022-11-20T07:02:42.856Z,100472.19
2022-11-20T07:04:44.410Z,100450.19
2022-11-20T07:06:46.068Z,100469.84
2022-11-20T07:08:47.433Z,100475.06
2022-11-20T07:10:49.002Z,100479.75
2022-11-20T07:12:51.210Z,100481.03
2022-11-20T07:14:52.738Z,100472.47
2022-11-20T07:16:54.237Z,100471.22
2022-11-20T07:18:57.229Z,100466.75
2022-11-20T07:21:01.329Z,100468.63
2022-11-20T07:23:02.849Z,100468.75
2022-11-20T07:25:05.748Z,100462.81
2022-11-20T07:27:07.387Z,100465.19
2022-11-20T07:29:08.704Z,100462.50
2022-11-20T07:31:13.386Z,100454.28
2022-11-20T07:33:17.535Z,100455.44
2022-11-20T07:35:20.459Z,100459.09
2022-11-20T07:37:21.991Z,100470.25
2022-11-20T07:39:24.191Z,100465.28
2022-11-20T07:41:25.885Z,100462.63
2022-11-20T07:43:27.376Z,100465.38
2022-11-20T07:45:29.008Z,100454.25
2022-11-20T07:47:35.372Z,100471.25
2022-11-20T07:49:36.927Z,100459.84
2022-11-20T07:51:39.838Z,100467.47
2022-11-20T07:53:41.359Z,100466.13
2022-11-20T07:55:42.858Z,100465.81
2022-11-20T07:57:44.647Z,100457.56
2022-11-20T07:59:46.170Z,100455.84
2022-11-20T08:01:47.726Z,100457.94
2022-11-20T08:03:49.249Z,100454.19
2022-11-20T08:05:50.954Z,100456.59
2022-11-20T08:07:53.667Z,100457.44
2022-11-20T08:09:55.204Z,100466.28
2022-11-20T08:11:56.748Z,100462.75
2022-11-20T08:13:58.477Z,100460.59
2022-11-20T08:15:59.878Z,100458.78
2022-11-20T08:18:29.338Z,100443.19
2022-11-20T08:20:25.069Z,100440.97
2022-11-20T08:22:26.650Z,100449.31
2022-11-20T08:24:29.521Z,100445.00
2022-11-20T08:26:31.046Z,100447.06
2022-11-20T08:28:32.646Z,100454.19
2022-11-20T08:30:34.692Z,100447.13
2022-11-20T08:32:36.274Z,100447.84
2022-11-20T08:34:37.777Z,100453.25
2022-11-20T08:36:39.286Z,100450.22
2022-11-20T08:38:40.864Z,100436.66
2022-11-20T08:40:44.302Z,100438.28
2022-11-20T08:42:49.925Z,100429.97
2022-11-20T08:44:51.449Z,100448.06
2022-11-20T08:46:53.011Z,100437.91
2022-11-20T08:48:57.424Z,100439.34
2022-11-20T08:50:59.505Z,100434.28
2022-11-20T08:53:03.800Z,100432.13
2022-11-20T08:55:07.137Z,100425.34
2022-11-20T08:57:11.401Z,100429.94
2022-11-20T08:59:50.873Z,100429.66
2022-11-20T09:01:34.508Z,100423.81
2022-11-20T09:03:36.591Z,100430.53
2022-11-20T09:05:38.154Z,100411.34
2022-11-20T09:07:39.719Z,100439.38
2022-11-20T09:09:41.071Z,100455.47
2022-11-20T09:11:42.653Z,100442.22
2022-11-20T09:13:45.569Z,100444.91
2022-11-20T09:15:47.177Z,100440.25
2022-11-20T09:17:51.973Z,100433.84
2022-11-20T09:19:53.489Z,100438.78
2022-11-20T09:21:59.541Z,100437.94
2022-11-20T09:24:01.476Z,100441.34
2022-11-20T09:26:03.925Z,100441.19
2022-11-20T09:28:05.448Z,100452.91
2022-11-20T09:30:13.011Z,100444.94
2022-11-20T09:32:14.558Z,100434.41
2022-11-20T09:34:16.399Z,100446.25
2022-11-20T09:36:17.987Z,100443.16
2022-11-20T09:38:19.830Z,100445.84
2022-11-20T09:40:24.201Z,100434.19
2022-11-20T09:42:38.628Z,100431.66
2022-11-20T09:44:57.292Z,100434.31
2022-11-20T09:47:08.488Z,100440.44
2022-11-20T09:49:32.038Z,100437.69
2022-11-20T09:51:42.928Z,100431.78
2022-11-20T09:54:01.274Z,100435.19
2022-11-20T09:56:04.378Z,100431.38
2022-11-20T09:58:07.487Z,100423.28
2022-11-20T10:00:12.598Z,100422.28
2022-11-20T10:02:26.736Z,100422.31
2022-11-20T10:04:30.899Z,100427.13
2022-11-20T10:06:34.367Z,100413.28
2022-11-20T10:08:42.789Z,100424.22
2022-11-20T10:10:50.780Z,100419.41
2022-11-20T10:13:13.224Z,100412.06
2022-11-20T10:15:22.741Z,100410.56
2022-11-20T10:17:42.306Z,100414.94
2022-11-20T10:19:55.966Z,100413.28
2022-11-20T10:22:10.658Z,100414.31
2022-11-20T10:24:31.343Z,100425.28
2022-11-20T10:26:43.899Z,100414.41
2022-11-20T10:29:00.614Z,100404.69
2022-11-20T10:31:08.941Z,100415.50
2022-11-20T10:33:18.157Z,100398.09
2022-11-20T10:35:24.513Z,100415.06
2022-11-20T10:37:27.923Z,100423.72
2022-11-20T10:39:36.202Z,100411.78
2022-11-20T10:41:41.851Z,100406.84
2022-11-20T10:43:45.478Z,100402.06
2022-11-20T10:45:54.268Z,100393.09
2022-11-20T10:48:08.689Z,100401.28
2022-11-20T10:50:20.607Z,100386.88
2022-11-20T10:52:33.501Z,100386.09
2022-11-20T10:54:42.771Z,100391.38
2022-11-20T10:56:50.105Z,100399.75
2022-11-20T10:59:05.621Z,100386.59
2022-11-20T11:01:15.802Z,100385.94
2022-11-20T11:03:24.948Z,100384.06
2022-11-20T11:05:38.744Z,100364.91
2022-11-20T11:07:41.366Z,100382.19
2022-11-20T11:09:47.526Z,100380.69
2022-11-20T11:11:49.300Z,100382.19
2022-11-20T11:13:51.672Z,100375.84
2022-11-20T11:15:53.906Z,100384.88
2022-11-20T11:17:55.617Z,100380.22
2022-11-20T11:20:01.636Z,100383.91
2022-11-20T11:22:19.020Z,100384.22
2022-11-20T11:24:40.991Z,100376.56
2022-11-20T11:26:52.803Z,100380.75
2022-11-20T11:28:56.481Z,100370.28
2022-11-20T11:30:58.364Z,100373.06
2022-11-20T11:33:11.790Z,100376.91
2022-11-20T11:35:25.203Z,100358.25
2022-11-20T11:37:33.635Z,100361.22
2022-11-20T11:39:35.984Z,100360.34
2022-11-20T11:41:37.632Z,100357.28
2022-11-20T11:43:39.079Z,100360.34
2022-11-20T11:45:40.778Z,100369.34
2022-11-20T11:47:46.714Z,100370.59
2022-11-20T11:49:48.460Z,100364.31
2022-11-20T11:52:04.453Z,100357.81
2022-11-20T11:54:17.120Z,100342.91
2022-11-20T11:56:18.908Z,100352.97
2022-11-20T11:58:42.973Z,100360.25
2022-11-20T12:00:52.711Z,100360.16
2022-11-20T12:03:03.927Z,100346.03
2022-11-20T12:05:17.620Z,100349.03
2022-11-20T12:07:46.652Z,100344.44
2022-11-20T12:09:54.488Z,100343.78
2022-11-20T12:12:09.282Z,100347.31
2022-11-20T12:14:17.902Z,100342.59
2022-11-20T12:16:21.007Z,100341.28
2022-11-20T12:18:23.499Z,100336.03
2022-11-20T12:20:29.622Z,100343.59
2022-11-20T12:22:40.296Z,100334.41
2022-11-20T12:24:56.286Z,100330.75
2022-11-20T12:27:11.973Z,100333.59
2022-11-20T12:29:23.308Z,100327.53
2022-11-20T12:31:43.582Z,100334.78
2022-11-20T12:34:15.943Z,100330.56
2022-11-20T12:36:27.779Z,100328.19
2022-11-20T12:39:03.074Z,100321.28
2022-11-20T12:41:13.146Z,100315.88
2022-11-20T12:43:21.728Z,100324.06
2022-11-20T12:45:38.957Z,100319.41
2022-11-20T12:47:55.070Z,100324.16
2022-11-20T12:50:09.425Z,100321.66
2022-11-20T12:52:21.486Z,100324.50
2022-11-20T12:54:52.447Z,100316.22
2022-11-20T12:57:03.970Z,100318.69
2022-11-20T12:59:22.696Z,100321.78
2022-11-20T13:01:31.964Z,100324.16
2022-11-20T13:03:40.689Z,100305.00
2022-11-20T13:05:56.031Z,100313.44
2022-11-20T13:07:58.932Z,100316.16
2022-11-20T13:10:01.736Z,100313.16
2022-11-20T13:12:11.405Z,100306.13
2022-11-20T13:14:34.510Z,100308.22
2022-11-20T13:16:42.584Z,100309.25
2022-11-20T13:18:44.329Z,100310.88
2022-11-20T13:20:47.326Z,100304.88
2022-11-20T13:22:50.515Z,100308.16
2022-11-20T13:24:52.502Z,100304.78
2022-11-20T13:27:20.770Z,100299.56
2022-11-20T13:29:22.304Z,100295.91
2022-11-20T13:31:33.249Z,100294.47
2022-11-20T13:33:37.465Z,100283.19
2022-11-20T13:35:42.755Z,100287.00
2022-11-20T13:37:45.006Z,100296.50
2022-11-20T13:39:46.533Z,100299.59
2022-11-20T13:41:55.671Z,100291.22
2022-11-20T13:44:08.923Z,100286.25
2022-11-20T13:46:11.407Z,100282.16
2022-11-20T13:48:21.640Z,100275.97
2022-11-20T13:50:40.597Z,100290.69
2022-11-20T13:52:52.262Z,100279.03
2022-11-20T13:55:07.234Z,100287.06
2022-11-20T13:57:26.912Z,100282.72
2022-11-20T13:59:41.390Z,100293.91
2022-11-20T14:01:46.775Z,100290.22
2022-11-20T14:06:16.820Z,100285.38
2022-11-20T14:08:28.005Z,100289.19
2022-11-20T14:10:32.435Z,100292.59
2022-11-20T14:12:34.945Z,100289.56
2022-11-20T14:14:49.269Z,100281.25
2022-11-20T14:17:05.174Z,100289.03
2022-11-20T14:19:34.551Z,100292.63
2022-11-20T14:21:36.063Z,100281.22
2022-11-20T14:23:37.610Z,100280.50
2022-11-20T14:25:43.747Z,100283.63
2022-11-20T14:27:51.293Z,100283.56
2022-11-20T14:29:54.483Z,100278.50
2022-11-20T14:31:57.679Z,100285.31
2022-11-20T14:33:59.305Z,100285.09
2022-11-20T14:36:00.893Z,100274.00
2022-11-20T14:38:03.412Z,100286.81
2022-11-20T14:40:23.743Z,100295.59
2022-11-20T14:42:26.729Z,100304.69
2022-11-20T14:44:32.301Z,100285.56
2022-11-20T14:46:35.400Z,100289.53
2022-11-20T14:48:41.547Z,100292.94
2022-11-20T14:50:43.372Z,100294.78
2022-11-20T14:52:51.718Z,100287.25
2022-11-20T14:54:55.128Z,100294.00
2022-11-20T14:56:57.958Z,100294.97
2022-11-20T14:58:59.918Z,100286.56
2022-11-20T15:01:03.837Z,100285.75
2022-11-20T15:03:16.407Z,100289.41
2022-11-20T15:05:20.141Z,100293.72
2022-11-20T15:07:26.500Z,100287.63
2022-11-20T15:09:28.062Z,100290.84
2022-11-20T15:11:32.020Z,100285.41
2022-11-20T15:13:38.763Z,100286.25
2022-11-20T15:15:47.100Z,100285.97
2022-11-20T15:17:48.700Z,100291.09
2022-11-20T15:19:52.956Z,100279.50
2022-11-20T15:21:57.526Z,100286.44
2022-11-20T15:23:59.096Z,100272.69
2022-11-20T15:26:00.772Z,100273.06
2022-11-20T15:28:02.079Z,100278.69
2022-11-20T15:30:14.362Z,100275.16
2022-11-20T15:32:17.607Z,100275.84
2022-11-20T15:34:20.657Z,100280.38
2022-11-20T15:36:26.718Z,100277.47
2022-11-20T15:38:28.313Z,100273.81
2022-11-20T15:40:29.847Z,100272.97
2022-11-20T15:42:31.518Z,100273.50
2022-11-20T15:44:32.873Z,100267.00
2022-11-20T15:46:38.313Z,100273.16
2022-11-20T15:48:48.276Z,100268.63
2022-11-20T15:50:55.265Z,100263.25
2022-11-20T15:52:58.244Z,100260.94
2022-11-20T15:54:59.991Z,100263.81
2022-11-20T15:57:04.613Z,100271.22
2022-11-20T15:59:06.322Z,100266.34
2022-11-20T16:01:10.551Z,100268.16
2022-11-20T16:03:17.796Z,100263.91
2022-11-20T16:05:19.454Z,100245.22
2022-11-20T16:07:20.884Z,100259.38
2022-11-20T16:09:24.236Z,100260.53
2022-11-20T16:11:26.317Z,100252.69
2022-11-20T16:13:28.141Z,100254.50
2022-11-20T16:15:30.122Z,100250.09
2022-11-20T16:17:31.651Z,100245.84
2022-11-20T16:19:33.334Z,100251.13
2022-11-20T16:21:34.822Z,100248.03
2022-11-20T16:23:36.375Z,100250.03
2022-11-20T16:25:42.537Z,100249.97
2022-11-20T16:27:44.128Z,100253.81
2022-11-20T16:29:46.145Z,100254.94
2022-11-20T16:31:47.963Z,100245.38
2022-11-20T16:33:53.661Z,100267.75
2022-11-20T16:36:08.175Z,100264.19
2022-11-20T16:38:10.272Z,100263.13
2022-11-20T16:40:14.863Z,100248.47
2022-11-20T16:42:17.802Z,100258.47
2022-11-20T16:44:19.447Z,100258.06
2022-11-20T16:46:24.435Z,100254.44
2022-11-20T16:48:26.213Z,100232.28
2022-11-20T16:50:27.743Z,100246.84
2022-11-20T16:52:30.762Z,100250.97
2022-11-20T16:54:32.328Z,100250.22
2022-11-20T16:56:33.938Z,100247.16
2022-11-20T16:58:36.868Z,100250.44
2022-11-20T17:00:39.270Z,100259.94
2022-11-20T17:02:40.852Z,100255.31
2022-11-20T17:04:42.499Z,100265.53
2022-11-20T17:06:46.502Z,100260.13
2022-11-20T17:08:48.436Z,100247.16
2022-11-20T17:10:50.313Z,100254.72
2022-11-20T17:12:53.727Z,100254.47
2022-11-20T17:14:56.635Z,100249.78
2022-11-20T17:17:32.588Z,100249.41
2022-11-20T17:19:32.275Z,100253.97
2022-11-20T17:21:35.364Z,100246.31
2022-11-20T17:23:39.083Z,100245.59
2022-11-20T17:25:40.627Z,100252.16
2022-11-20T17:27:42.158Z,100247.69
2022-11-20T17:29:43.696Z,100249.63
2022-11-20T17:31:46.559Z,100246.66
2022-11-20T17:33:48.199Z,100242.03
2022-11-20T17:35:52.690Z,100250.94
2022-11-20T17:37:54.188Z,100237.75
2022-11-20T17:39:55.799Z,100245.75
2022-11-20T17:41:57.265Z,100253.22
2022-11-20T17:44:00.729Z,100253.22
2022-11-20T17:46:04.710Z,100252.34
2022-11-20T17:48:07.788Z,100252.13
2022-11-20T17:50:09.725Z,100246.34
2022-11-20T17:52:11.283Z,100251.34
2022-11-20T17:54:12.849Z,100243.38
2022-11-20T17:56:41.620Z,100242.28
2022-11-20T17:58:46.046Z,100239.06
2022-11-20T18:00:47.628Z,100244.31
2022-11-20T18:02:49.153Z,100238.88
2022-11-20T18:04:52.069Z,100233.53
2022-11-20T18:06:56.612Z,100236.88
2022-11-20T18:08:58.883Z,100225.56
2022-11-20T18:11:00.415Z,100223.63
2022-11-20T18:13:02.371Z,100211.50
2022-11-20T18:15:04.413Z,100219.75
2022-11-20T18:17:07.765Z,100214.06
2022-11-20T18:19:09.824Z,100215.50
2022-11-20T18:21:15.593Z,100217.75
2022-11-20T18:23:17.189Z,100219.31
2022-11-20T18:25:18.565Z,100222.47
2022-11-20T18:27:21.269Z,100206.16
2022-11-20T18:29:23.134Z,100211.56
2022-11-20T18:31:24.957Z,100215.53
2022-11-20T18:33:28.515Z,100217.13
2022-11-20T18:35:30.277Z,100211.69
2022-11-20T18:37:33.020Z,100209.47
2022-11-20T18:39:34.645Z,100203.91
2022-11-20T18:41:36.130Z,100214.31
2022-11-20T18:43:37.781Z,100209.47
2022-11-20T18:45:39.158Z,100214.28
2022-11-20T18:47:40.815Z,100206.53
2022-11-20T18:49:42.446Z,100209.50
2022-11-20T18:51:43.977Z,100210.50
2022-11-20T18:53:47.678Z,100196.13
2022-11-20T18:55:49.453Z,100205.97
2022-11-20T18:57:50.803Z,100208.88
2022-11-20T18:59:52.894Z,100203.59
2022-11-20T19:01:54.526Z,100200.13
2022-11-20T19:03:55.918Z,100207.91
2022-11-20T19:05:57.485Z,100204.41
2022-11-20T19:07:59.072Z,100197.75
2022-11-20T19:10:03.921Z,100193.44
2022-11-20T19:12:06.782Z,100202.03
2022-11-20T19:14:09.001Z,100200.56
2022-11-20T19:16:15.394Z,100200.91
2022-11-20T19:18:16.954Z,100205.22
2022-11-20T19:20:18.526Z,100189.38
2022-11-20T19:22:20.027Z,100194.63
2022-11-20T19:24:21.592Z,100205.19
2022-11-20T19:26:25.202Z,100207.06
2022-11-20T19:28:26.846Z,100208.50
2022-11-20T19:30:28.132Z,100205.06
2022-11-20T19:32:29.762Z,100206.75
2022-11-20T19:34:31.085Z,100213.66
2022-11-20T19:36:41.641Z,100206.78
2022-11-20T19:38:48.068Z,100214.28
2022-11-20T19:40:49.606Z,100209.41
2022-11-20T19:42:52.493Z,100209.56
2022-11-20T19:44:53.990Z,100198.50
2022-11-20T19:46:55.542Z,100205.56
2022-11-20T19:48:57.423Z,100207.44
2022-11-20T19:50:59.006Z,100198.13
2022-11-20T19:53:00.493Z,100203.34
2022-11-20T19:55:02.072Z,100210.72
2022-11-20T19:57:03.757Z,100198.22
2022-11-20T19:59:06.505Z,100202.50
2022-11-20T20:01:09.408Z,100184.00
2022-11-20T20:03:11.056Z,100192.47
2022-11-20T20:05:12.612Z,100186.72
2022-11-20T20:07:14.325Z,100194.63
2022-11-20T20:09:16.441Z,100193.50
2022-11-20T20:11:20.131Z,100188.25
2022-11-20T20:13:21.759Z,100192.53
2022-11-20T20:15:24.840Z,100190.88
2022-11-20T20:17:26.466Z,100180.47
2022-11-20T20:19:28.036Z,100182.94
2022-11-20T20:21:30.295Z,100181.81
2022-11-20T20:23:32.194Z,100180.50
2022-11-20T20:25:33.926Z,100175.81
2022-11-20T20:27:35.572Z,100180.09
2022-11-20T20:29:36.913Z,100175.19
2022-11-20T20:31:40.325Z,100175.19
2022-11-20T20:33:42.990Z,100170.00
2022-11-20T20:35:44.530Z,100163.84
2022-11-20T20:37:46.049Z,100164.06
2022-11-20T20:39:47.628Z,100153.34
2022-11-20T20:41:49.157Z,100146.38
2022-11-20T20:43:50.938Z,100155.75
2022-11-20T20:45:52.597Z,100156.22
2022-11-20T20:47:55.321Z,100150.06
2022-11-20T20:49:56.985Z,100137.19
2022-11-20T20:51:58.377Z,100152.66
2022-11-20T20:53:59.930Z,100134.97
2022-11-20T20:56:02.140Z,100151.88
2022-11-20T20:58:03.666Z,100155.44
2022-11-20T21:00:06.918Z,100155.22
2022-11-20T21:02:10.074Z,100153.75
2022-11-20T21:04:13.043Z,100159.56
2022-11-20T21:06:14.595Z,100163.47
2022-11-20T21:08:16.159Z,100155.22
2022-11-20T21:10:22.484Z,100148.88
2022-11-20T21:12:25.261Z,100155.75
2022-11-20T21:14:26.784Z,100146.25
2022-11-20T21:16:28.603Z,100135.84
2022-11-20T21:18:30.243Z,100134.00
2022-11-20T21:20:33.113Z,100133.22
2022-11-20T21:22:36.531Z,100129.56
2022-11-20T21:24:38.224Z,100130.69
2022-11-20T21:26:39.812Z,100128.03
2022-11-20T21:28:41.799Z,100119.34
2022-11-20T21:30:43.331Z,100120.25
2022-11-20T21:32:44.916Z,100120.06
2022-11-20T21:34:46.299Z,100116.81
2022-11-20T21:36:49.383Z,100112.66
2022-11-20T21:38:51.840Z,100122.63
2022-11-20T21:40:53.380Z,100099.41
2022-11-20T21:42:55.075Z,100118.44
2022-11-20T21:44:56.435Z,100109.75
2022-11-20T21:46:57.980Z,100107.97
2022-11-20T21:48:59.755Z,100113.16
2022-11-20T21:51:06.522Z,100107.97
2022-11-20T21:53:09.874Z,100100.94
2022-11-20T21:55:11.434Z,100094.19
2022-11-20T21:57:13.016Z,100102.03
2022-11-20T21:59:14.514Z,100100.28
2022-11-20T22:01:18.629Z,100100.28
2022-11-20T22:03:20.282Z,100088.03
2022-11-20T22:05:21.868Z,100091.53
2022-11-20T22:07:23.316Z,100089.88
2022-11-20T22:09:26.325Z,100090.63
2022-11-20T22:11:27.939Z,100077.69
2022-11-20T22:13:29.304Z,100094.25
2022-11-20T22:15:53.579Z,100089.97
2022-11-20T22:17:52.736Z,100076.94
2022-11-20T22:19:54.252Z,100081.38
2022-11-20T22:21:55.797Z,100083.94
2022-11-20T22:23:58.207Z,100087.47
2022-11-20T22:26:05.754Z,100075.06
2022-11-20T22:28:07.258Z,100069.34
2022-11-20T22:30:09.547Z,100070.91
2022-11-20T22:32:11.092Z,100071.63
2022-11-20T22:34:13.347Z,100077.97
2022-11-20T22:36:16.680Z,100071.00
2022-11-20T22:38:18.181Z,100062.50
2022-11-20T22:40:19.726Z,100066.78
2022-11-20T22:42:22.642Z,100065.19
2022-11-20T22:44:24.403Z,100053.84
2022-11-20T22:46:27.948Z,100051.97
2022-11-20T22:48:29.476Z,100047.16
2022-11-20T22:50:31.068Z,100033.91
2022-11-20T22:52:32.706Z,100036.91
2022-11-20T22:54:34.037Z,100046.56
2022-11-20T22:56:35.559Z,100039.50
2022-11-20T22:58:40.248Z,100042.22
2022-11-20T23:00:41.758Z,100041.09
2022-11-20T23:02:43.924Z,100037.56
2022-11-20T23:04:45.440Z,100029.34
2022-11-20T23:06:47.233Z,100025.84
2022-11-20T23:08:49.596Z,100023.16
2022-11-20T23:10:51.142Z,100023.78
2022-11-20T23:12:53.814Z,100031.38
2022-11-20T23:14:56.718Z,100027.34
2022-11-20T23:16:58.256Z,100017.03
2022-11-20T23:19:02.239Z,100016.88
2022-11-20T23:21:04.977Z,100020.50
2022-11-20T23:23:06.572Z,100017.06
2022-11-20T23:25:08.586Z,100022.88
2022-11-20T23:27:10.216Z,100016.22
2022-11-20T23:29:11.584Z,100013.78
2022-11-20T23:31:15.783Z,100006.31
2022-11-20T23:33:17.389Z,100004.03
2022-11-20T23:35:19.053Z,100010.16
2022-11-20T23:37:20.403Z,99994.59
2022-11-20T23:39:21.917Z,100003.50
2022-11-20T23:41:23.482Z,100000.72